Comandante Luis Piedra Buena, Argentina
Current Conditions -  °F | °C
As of 9:00 PM on Friday 24 Oct 2014 (Local Time) from SAWG Reporting Station
Clear Clear  
Wind Chill: 54°   Ceiling: Unl
Heat Index: 54°   Visibility: 6mi
Dew Point: 32°   Wind: 20mph
Humidity: 44%   Direction: 270°W
Pressure: 29.71"   Gusts: NA
Location:  49.98°S, 68.9°W
Report Text: SAWG 250000Z 27017KT CAVOK 12/M00 Q1006
Loading
Personal Weather Stations






























Interactive Weather Map New forecast layout! Learn more

10-Day Weather Forecast

Advertisements
Track Severe Weather on mobile